sensor_id;sensor_type;location;lat;lon;timestamp;P1;durP1;ratioP1;P2;durP2;ratioP2
2728;SDS011;1372;47.956;7.830;2022-12-18T00:01:30;24.20;;;12.97;;
2728;SDS011;1372;47.956;7.830;2022-12-18T00:04:02;28.17;;;12.87;;
2728;SDS011;1372;47.956;7.830;2022-12-18T00:06:33;26.60;;;12.00;;
2728;SDS011;1372;47.956;7.830;2022-12-18T00:09:03;27.50;;;12.30;;
2728;SDS011;1372;47.956;7.830;2022-12-18T00:11:35;21.33;;;11.80;;
2728;SDS011;1372;47.956;7.830;2022-12-18T00:14:03;22.47;;;11.23;;
2728;SDS011;1372;47.956;7.830;2022-12-18T00:16:32;20.17;;;11.37;;
2728;SDS011;1372;47.956;7.830;2022-12-18T00:19:03;19.40;;;10.80;;
2728;SDS011;1372;47.956;7.830;2022-12-18T00:21:33;20.47;;;10.80;;
2728;SDS011;1372;47.956;7.830;2022-12-18T00:24:02;23.33;;;11.80;;
2728;SDS011;1372;47.956;7.830;2022-12-18T00:26:32;23.50;;;11.50;;
2728;SDS011;1372;47.956;7.830;2022-12-18T00:29:06;24.30;;;11.53;;
2728;SDS011;1372;47.956;7.830;2022-12-18T00:31:41;22.87;;;11.90;;
2728;SDS011;1372;47.956;7.830;2022-12-18T00:34:10;23.20;;;12.20;;
2728;SDS011;1372;47.956;7.830;2022-12-18T00:36:40;26.90;;;12.47;;
2728;SDS011;1372;47.956;7.830;2022-12-18T00:39:12;23.50;;;13.07;;
2728;SDS011;1372;47.956;7.830;2022-12-18T00:41:42;26.93;;;13.17;;
2728;SDS011;1372;47.956;7.830;2022-12-18T00:44:31;26.80;;;12.00;;
2728;SDS011;1372;47.956;7.830;2022-12-18T00:46:59;22.53;;;12.03;;
2728;SDS011;1372;47.956;7.830;2022-12-18T00:49:30;19.63;;;11.20;;
2728;SDS011;1372;47.956;7.830;2022-12-18T00:51:59;20.33;;;10.27;;
2728;SDS011;1372;47.956;7.830;2022-12-18T00:54:29;25.77;;;11.90;;
2728;SDS011;1372;47.956;7.830;2022-12-18T00:56:59;20.67;;;11.67;;
2728;SDS011;1372;47.956;7.830;2022-12-18T00:59:31;23.10;;;12.20;;
2728;SDS011;1372;47.956;7.830;2022-12-18T01:02:00;29.83;;;12.93;;
2728;SDS011;1372;47.956;7.830;2022-12-18T01:04:30;24.97;;;12.10;;
2728;SDS011;1372;47.956;7.830;2022-12-18T01:06:59;25.70;;;12.60;;
2728;SDS011;1372;47.956;7.830;2022-12-18T01:09:28;27.70;;;14.23;;
2728;SDS011;1372;47.956;7.830;2022-12-18T01:12:00;22.90;;;12.87;;
2728;SDS011;1372;47.956;7.830;2022-12-18T01:14:28;30.50;;;13.40;;
2728;SDS011;1372;47.956;7.830;2022-12-18T01:16:57;28.73;;;14.00;;
2728;SDS011;1372;47.956;7.830;2022-12-18T01:19:26;28.73;;;12.13;;
2728;SDS011;1372;47.956;7.830;2022-12-18T01:21:54;24.63;;;11.50;;
2728;SDS011;1372;47.956;7.830;2022-12-18T01:24:23;25.67;;;11.77;;
2728;SDS011;1372;47.956;7.830;2022-12-18T01:26:51;31.03;;;13.70;;
2728;SDS011;1372;47.956;7.830;2022-12-18T01:29:21;25.27;;;12.40;;
2728;SDS011;1372;47.956;7.830;2022-12-18T01:31:50;23.90;;;12.57;;
2728;SDS011;1372;47.956;7.830;2022-12-18T01:34:19;22.57;;;11.37;;
2728;SDS011;1372;47.956;7.830;2022-12-18T01:36:47;19.60;;;11.37;;
2728;SDS011;1372;47.956;7.830;2022-12-18T01:39:20;21.40;;;12.20;;
2728;SDS011;1372;47.956;7.830;2022-12-18T01:41:49;27.23;;;12.70;;
2728;SDS011;1372;47.956;7.830;2022-12-18T01:48:03;27.20;;;13.27;;
2728;SDS011;1372;47.956;7.830;2022-12-18T01:50:35;30.13;;;13.83;;
2728;SDS011;1372;47.956;7.830;2022-12-18T01:53:07;24.37;;;14.03;;
2728;SDS011;1372;47.956;7.830;2022-12-18T01:55:41;23.30;;;12.13;;
2728;SDS011;1372;47.956;7.830;2022-12-18T01:58:15;24.80;;;11.27;;
2728;SDS011;1372;47.956;7.830;2022-12-18T02:00:47;27.80;;;12.07;;
2728;SDS011;1372;47.956;7.830;2022-12-18T02:03:15;21.90;;;12.30;;
2728;SDS011;1372;47.956;7.830;2022-12-18T02:05:45;26.57;;;12.53;;
2728;SDS011;1372;47.956;7.830;2022-12-18T02:08:21;25.80;;;12.37;;
2728;SDS011;1372;47.956;7.830;2022-12-18T02:11:00;24.70;;;13.10;;
2728;SDS011;1372;47.956;7.830;2022-12-18T02:13:38;23.20;;;12.37;;
2728;SDS011;1372;47.956;7.830;2022-12-18T02:16:17;26.13;;;12.50;;
2728;SDS011;1372;47.956;7.830;2022-12-18T02:18:53;31.10;;;13.60;;
2728;SDS011;1372;47.956;7.830;2022-12-18T02:21:29;31.60;;;13.73;;
2728;SDS011;1372;47.956;7.830;2022-12-18T02:24:09;23.60;;;11.57;;
2728;SDS011;1372;47.956;7.830;2022-12-18T02:26:50;29.53;;;13.90;;
2728;SDS011;1372;47.956;7.830;2022-12-18T02:29:24;19.57;;;11.93;;
2728;SDS011;1372;47.956;7.830;2022-12-18T02:31:57;23.87;;;11.40;;
2728;SDS011;1372;47.956;7.830;2022-12-18T02:34:28;27.13;;;13.53;;
2728;SDS011;1372;47.956;7.830;2022-12-18T02:37:00;26.03;;;13.93;;
2728;SDS011;1372;47.956;7.830;2022-12-18T02:39:34;25.80;;;12.77;;
2728;SDS011;1372;47.956;7.830;2022-12-18T02:42:06;31.23;;;13.90;;
2728;SDS011;1372;47.956;7.830;2022-12-18T02:44:35;21.40;;;11.17;;
2728;SDS011;1372;47.956;7.830;2022-12-18T02:47:11;25.60;;;12.17;;
2728;SDS011;1372;47.956;7.830;2022-12-18T02:49:44;22.23;;;11.83;;
2728;SDS011;1372;47.956;7.830;2022-12-18T02:52:25;27.40;;;11.90;;
2728;SDS011;1372;47.956;7.830;2022-12-18T02:55:05;26.67;;;12.70;;
2728;SDS011;1372;47.956;7.830;2022-12-18T02:57:49;19.30;;;10.43;;
2728;SDS011;1372;47.956;7.830;2022-12-18T03:00:22;23.10;;;12.60;;
2728;SDS011;1372;47.956;7.830;2022-12-18T03:02:57;27.07;;;12.07;;
2728;SDS011;1372;47.956;7.830;2022-12-18T03:05:36;23.80;;;12.63;;
2728;SDS011;1372;47.956;7.830;2022-12-18T03:08:10;26.33;;;12.60;;
2728;SDS011;1372;47.956;7.830;2022-12-18T03:10:44;22.73;;;12.27;;
2728;SDS011;1372;47.956;7.830;2022-12-18T03:13:22;23.00;;;13.27;;
2728;SDS011;1372;47.956;7.830;2022-12-18T03:16:05;20.43;;;11.20;;
2728;SDS011;1372;47.956;7.830;2022-12-18T03:18:38;28.50;;;12.60;;
2728;SDS011;1372;47.956;7.830;2022-12-18T03:21:13;26.73;;;12.60;;
2728;SDS011;1372;47.956;7.830;2022-12-18T03:23:47;30.77;;;13.30;;
2728;SDS011;1372;47.956;7.830;2022-12-18T03:26:19;22.87;;;13.07;;
2728;SDS011;1372;47.956;7.830;2022-12-18T03:28:54;26.27;;;12.80;;
2728;SDS011;1372;47.956;7.830;2022-12-18T03:31:32;21.93;;;12.00;;
2728;SDS011;1372;47.956;7.830;2022-12-18T03:34:04;26.83;;;11.90;;
2728;SDS011;1372;47.956;7.830;2022-12-18T03:36:38;28.37;;;13.10;;
2728;SDS011;1372;47.956;7.830;2022-12-18T03:39:06;29.63;;;13.27;;
2728;SDS011;1372;47.956;7.830;2022-12-18T03:41:38;21.80;;;11.93;;
2728;SDS011;1372;47.956;7.830;2022-12-18T03:44:23;21.13;;;11.33;;
2728;SDS011;1372;47.956;7.830;2022-12-18T03:46:58;25.83;;;11.97;;
2728;SDS011;1372;47.956;7.830;2022-12-18T03:49:35;22.80;;;12.70;;
2728;SDS011;1372;47.956;7.830;2022-12-18T03:52:09;23.80;;;11.93;;
2728;SDS011;1372;47.956;7.830;2022-12-18T03:54:44;23.57;;;12.10;;
2728;SDS011;1372;47.956;7.830;2022-12-18T03:57:16;22.40;;;11.87;;
2728;SDS011;1372;47.956;7.830;2022-12-18T03:59:52;19.17;;;10.97;;
2728;SDS011;1372;47.956;7.830;2022-12-18T04:02:26;25.67;;;12.00;;
2728;SDS011;1372;47.956;7.830;2022-12-18T04:04:56;18.20;;;10.00;;
2728;SDS011;1372;47.956;7.830;2022-12-18T04:07:28;24.93;;;12.27;;
2728;SDS011;1372;47.956;7.830;2022-12-18T04:09:58;21.70;;;11.70;;
2728;SDS011;1372;47.956;7.830;2022-12-18T04:12:29;27.27;;;12.30;;
2728;SDS011;1372;47.956;7.830;2022-12-18T04:14:59;24.77;;;12.17;;
2728;SDS011;1372;47.956;7.830;2022-12-18T04:17:28;23.50;;;11.87;;
2728;SDS011;1372;47.956;7.830;2022-12-18T04:19:57;25.23;;;11.77;;
2728;SDS011;1372;47.956;7.830;2022-12-18T04:22:25;23.00;;;11.93;;
2728;SDS011;1372;47.956;7.830;2022-12-18T04:24:54;21.97;;;12.20;;
2728;SDS011;1372;47.956;7.830;2022-12-18T04:27:22;28.40;;;12.63;;
2728;SDS011;1372;47.956;7.830;2022-12-18T04:29:51;24.73;;;11.90;;
2728;SDS011;1372;47.956;7.830;2022-12-18T04:32:21;19.57;;;11.10;;
2728;SDS011;1372;47.956;7.830;2022-12-18T04:34:49;21.13;;;11.00;;
2728;SDS011;1372;47.956;7.830;2022-12-18T04:37:18;19.77;;;11.20;;
2728;SDS011;1372;47.956;7.830;2022-12-18T04:39:48;27.83;;;11.97;;
2728;SDS011;1372;47.956;7.830;2022-12-18T04:42:17;23.27;;;13.40;;
2728;SDS011;1372;47.956;7.830;2022-12-18T04:44:46;27.97;;;13.10;;
2728;SDS011;1372;47.956;7.830;2022-12-18T04:47:14;22.80;;;12.40;;
2728;SDS011;1372;47.956;7.830;2022-12-18T04:49:44;24.07;;;11.87;;
2728;SDS011;1372;47.956;7.830;2022-12-18T04:52:15;22.53;;;12.37;;
2728;SDS011;1372;47.956;7.830;2022-12-18T04:54:44;21.97;;;12.20;;
2728;SDS011;1372;47.956;7.830;2022-12-18T04:57:12;25.07;;;12.87;;
2728;SDS011;1372;47.956;7.830;2022-12-18T04:59:41;21.47;;;10.20;;
2728;SDS011;1372;47.956;7.830;2022-12-18T05:02:09;27.43;;;11.97;;
2728;SDS011;1372;47.956;7.830;2022-12-18T05:04:38;22.90;;;11.20;;
2728;SDS011;1372;47.956;7.830;2022-12-18T05:07:08;25.13;;;10.73;;
2728;SDS011;1372;47.956;7.830;2022-12-18T05:09:39;26.40;;;12.20;;
2728;SDS011;1372;47.956;7.830;2022-12-18T05:12:08;22.60;;;11.50;;
2728;SDS011;1372;47.956;7.830;2022-12-18T05:14:36;27.07;;;12.80;;
2728;SDS011;1372;47.956;7.830;2022-12-18T05:17:13;23.17;;;13.40;;
2728;SDS011;1372;47.956;7.830;2022-12-18T05:19:42;27.87;;;12.90;;
2728;SDS011;1372;47.956;7.830;2022-12-18T05:22:12;28.77;;;13.97;;
2728;SDS011;1372;47.956;7.830;2022-12-18T05:24:40;23.90;;;12.70;;
2728;SDS011;1372;47.956;7.830;2022-12-18T05:27:09;24.37;;;12.80;;
2728;SDS011;1372;47.956;7.830;2022-12-18T05:29:37;26.33;;;12.70;;
2728;SDS011;1372;47.956;7.830;2022-12-18T05:32:06;21.27;;;11.70;;
2728;SDS011;1372;47.956;7.830;2022-12-18T05:34:37;21.27;;;10.50;;
2728;SDS011;1372;47.956;7.830;2022-12-18T05:37:06;21.57;;;11.03;;
2728;SDS011;1372;47.956;7.830;2022-12-18T05:39:36;20.27;;;11.53;;
2728;SDS011;1372;47.956;7.830;2022-12-18T05:42:05;19.23;;;10.07;;
2728;SDS011;1372;47.956;7.830;2022-12-18T05:44:33;14.60;;;8.60;;
2728;SDS011;1372;47.956;7.830;2022-12-18T05:47:04;17.23;;;9.70;;
2728;SDS011;1372;47.956;7.830;2022-12-18T05:49:32;21.57;;;10.40;;
2728;SDS011;1372;47.956;7.830;2022-12-18T05:52:01;13.10;;;8.63;;
2728;SDS011;1372;47.956;7.830;2022-12-18T05:54:30;17.40;;;8.20;;
2728;SDS011;1372;47.956;7.830;2022-12-18T05:57:00;13.67;;;9.20;;
2728;SDS011;1372;47.956;7.830;2022-12-18T05:59:30;13.57;;;8.60;;
2728;SDS011;1372;47.956;7.830;2022-12-18T06:01:59;17.37;;;10.37;;
2728;SDS011;1372;47.956;7.830;2022-12-18T06:04:27;14.47;;;9.03;;
2728;SDS011;1372;47.956;7.830;2022-12-18T06:07:01;16.67;;;8.10;;
2728;SDS011;1372;47.956;7.830;2022-12-18T06:09:32;18.00;;;9.10;;
2728;SDS011;1372;47.956;7.830;2022-12-18T06:12:02;14.20;;;8.27;;
2728;SDS011;1372;47.956;7.830;2022-12-18T06:14:34;18.07;;;10.73;;
2728;SDS011;1372;47.956;7.830;2022-12-18T06:17:03;22.20;;;11.80;;
2728;SDS011;1372;47.956;7.830;2022-12-18T06:19:31;22.50;;;10.47;;
2728;SDS011;1372;47.956;7.830;2022-12-18T06:22:00;18.33;;;10.00;;
2728;SDS011;1372;47.956;7.830;2022-12-18T06:24:28;20.23;;;10.73;;
2728;SDS011;1372;47.956;7.830;2022-12-18T06:26:58;10.93;;;7.30;;
2728;SDS011;1372;47.956;7.830;2022-12-18T06:29:28;11.20;;;6.90;;
2728;SDS011;1372;47.956;7.830;2022-12-18T06:31:57;14.47;;;8.10;;
2728;SDS011;1372;47.956;7.830;2022-12-18T06:34:25;22.13;;;12.13;;
2728;SDS011;1372;47.956;7.830;2022-12-18T06:36:54;19.73;;;10.37;;
2728;SDS011;1372;47.956;7.830;2022-12-18T06:39:26;21.67;;;11.20;;
2728;SDS011;1372;47.956;7.830;2022-12-18T06:41:55;20.33;;;10.73;;
2728;SDS011;1372;47.956;7.830;2022-12-18T06:44:24;20.20;;;11.67;;
2728;SDS011;1372;47.956;7.830;2022-12-18T06:46:53;31.13;;;11.13;;
2728;SDS011;1372;47.956;7.830;2022-12-18T06:49:22;32.73;;;14.90;;
2728;SDS011;1372;47.956;7.830;2022-12-18T06:51:55;21.90;;;12.40;;
2728;SDS011;1372;47.956;7.830;2022-12-18T06:54:24;15.40;;;9.80;;
2728;SDS011;1372;47.956;7.830;2022-12-18T06:56:55;21.17;;;10.80;;
2728;SDS011;1372;47.956;7.830;2022-12-18T06:59:24;16.30;;;9.37;;
2728;SDS011;1372;47.956;7.830;2022-12-18T07:01:53;22.37;;;11.43;;
2728;SDS011;1372;47.956;7.830;2022-12-18T07:04:26;20.53;;;10.73;;
2728;SDS011;1372;47.956;7.830;2022-12-18T07:06:56;15.50;;;9.90;;
2728;SDS011;1372;47.956;7.830;2022-12-18T07:09:24;13.63;;;9.43;;
2728;SDS011;1372;47.956;7.830;2022-12-18T07:11:56;17.77;;;10.77;;
2728;SDS011;1372;47.956;7.830;2022-12-18T07:14:25;19.80;;;13.53;;
2728;SDS011;1372;47.956;7.830;2022-12-18T07:16:55;17.67;;;11.80;;
2728;SDS011;1372;47.956;7.830;2022-12-18T07:19:23;14.90;;;8.30;;
2728;SDS011;1372;47.956;7.830;2022-12-18T07:21:52;10.10;;;8.10;;
2728;SDS011;1372;47.956;7.830;2022-12-18T07:24:20;14.50;;;9.00;;
2728;SDS011;1372;47.956;7.830;2022-12-18T07:26:49;15.43;;;8.17;;
2728;SDS011;1372;47.956;7.830;2022-12-18T07:29:18;12.50;;;8.00;;
2728;SDS011;1372;47.956;7.830;2022-12-18T07:31:47;11.57;;;7.63;;
2728;SDS011;1372;47.956;7.830;2022-12-18T07:34:19;13.50;;;8.40;;
2728;SDS011;1372;47.956;7.830;2022-12-18T07:36:48;15.87;;;9.47;;
2728;SDS011;1372;47.956;7.830;2022-12-18T07:39:16;14.10;;;9.33;;
2728;SDS011;1372;47.956;7.830;2022-12-18T07:41:45;17.00;;;10.50;;
2728;SDS011;1372;47.956;7.830;2022-12-18T07:44:34;27.23;;;12.97;;
2728;SDS011;1372;47.956;7.830;2022-12-18T07:47:02;17.70;;;11.23;;
2728;SDS011;1372;47.956;7.830;2022-12-18T07:49:38;18.40;;;12.77;;
2728;SDS011;1372;47.956;7.830;2022-12-18T07:52:07;16.67;;;12.10;;
2728;SDS011;1372;47.956;7.830;2022-12-18T07:54:36;15.77;;;10.10;;
2728;SDS011;1372;47.956;7.830;2022-12-18T07:57:04;19.20;;;12.87;;
2728;SDS011;1372;47.956;7.830;2022-12-18T07:59:47;16.83;;;10.97;;
2728;SDS011;1372;47.956;7.830;2022-12-18T08:02:18;14.73;;;10.53;;
2728;SDS011;1372;47.956;7.830;2022-12-18T08:04:48;17.27;;;10.43;;
2728;SDS011;1372;47.956;7.830;2022-12-18T08:07:17;15.07;;;11.47;;
2728;SDS011;1372;47.956;7.830;2022-12-18T08:09:45;17.73;;;11.90;;
2728;SDS011;1372;47.956;7.830;2022-12-18T08:12:14;15.03;;;9.20;;
2728;SDS011;1372;47.956;7.830;2022-12-18T08:14:42;18.87;;;12.03;;
2728;SDS011;1372;47.956;7.830;2022-12-18T08:17:11;24.30;;;16.10;;
2728;SDS011;1372;47.956;7.830;2022-12-18T08:19:42;27.63;;;16.70;;
2728;SDS011;1372;47.956;7.830;2022-12-18T08:22:12;31.07;;;19.47;;
2728;SDS011;1372;47.956;7.830;2022-12-18T08:24:40;30.37;;;19.37;;
2728;SDS011;1372;47.956;7.830;2022-12-18T08:27:09;29.90;;;20.37;;
2728;SDS011;1372;47.956;7.830;2022-12-18T08:29:59;25.20;;;17.90;;
2728;SDS011;1372;47.956;7.830;2022-12-18T08:32:29;29.53;;;16.57;;
2728;SDS011;1372;47.956;7.830;2022-12-18T08:34:59;34.43;;;19.70;;
2728;SDS011;1372;47.956;7.830;2022-12-18T08:37:31;37.67;;;18.77;;
2728;SDS011;1372;47.956;7.830;2022-12-18T08:40:00;39.17;;;22.60;;
2728;SDS011;1372;47.956;7.830;2022-12-18T08:42:29;34.20;;;22.07;;
2728;SDS011;1372;47.956;7.830;2022-12-18T08:45:15;27.70;;;18.07;;
2728;SDS011;1372;47.956;7.830;2022-12-18T08:47:44;24.40;;;14.40;;
2728;SDS011;1372;47.956;7.830;2022-12-18T08:50:13;20.17;;;12.83;;
2728;SDS011;1372;47.956;7.830;2022-12-18T08:52:43;19.80;;;12.40;;
2728;SDS011;1372;47.956;7.830;2022-12-18T08:55:11;27.03;;;17.20;;
2728;SDS011;1372;47.956;7.830;2022-12-18T08:57:40;29.00;;;17.63;;
2728;SDS011;1372;47.956;7.830;2022-12-18T09:00:09;27.30;;;15.97;;
2728;SDS011;1372;47.956;7.830;2022-12-18T09:02:40;31.23;;;19.90;;
2728;SDS011;1372;47.956;7.830;2022-12-18T09:05:08;33.63;;;21.00;;
2728;SDS011;1372;47.956;7.830;2022-12-18T09:07:37;35.70;;;21.20;;
2728;SDS011;1372;47.956;7.830;2022-12-18T09:10:08;24.63;;;15.27;;
2728;SDS011;1372;47.956;7.830;2022-12-18T09:12:37;18.83;;;12.90;;
2728;SDS011;1372;47.956;7.830;2022-12-18T09:15:06;19.20;;;12.07;;
2728;SDS011;1372;47.956;7.830;2022-12-18T09:17:35;41.07;;;20.50;;
2728;SDS011;1372;47.956;7.830;2022-12-18T09:20:04;56.07;;;26.17;;
2728;SDS011;1372;47.956;7.830;2022-12-18T09:22:34;42.90;;;22.40;;
2728;SDS011;1372;47.956;7.830;2022-12-18T09:25:03;30.80;;;16.70;;
2728;SDS011;1372;47.956;7.830;2022-12-18T09:27:38;19.13;;;10.97;;
2728;SDS011;1372;47.956;7.830;2022-12-18T09:30:07;12.20;;;9.17;;
2728;SDS011;1372;47.956;7.830;2022-12-18T09:32:37;14.17;;;9.73;;
2728;SDS011;1372;47.956;7.830;2022-12-18T09:35:05;18.07;;;13.07;;
2728;SDS011;1372;47.956;7.830;2022-12-18T09:37:34;19.23;;;13.40;;
2728;SDS011;1372;47.956;7.830;2022-12-18T09:40:03;12.27;;;8.90;;
2728;SDS011;1372;47.956;7.830;2022-12-18T09:42:34;16.23;;;10.43;;
2728;SDS011;1372;47.956;7.830;2022-12-18T09:45:04;11.30;;;7.20;;
2728;SDS011;1372;47.956;7.830;2022-12-18T09:47:36;13.47;;;9.43;;
2728;SDS011;1372;47.956;7.830;2022-12-18T09:50:15;26.20;;;15.40;;
2728;SDS011;1372;47.956;7.830;2022-12-18T09:52:51;26.73;;;16.93;;
2728;SDS011;1372;47.956;7.830;2022-12-18T09:55:28;25.40;;;15.90;;
2728;SDS011;1372;47.956;7.830;2022-12-18T09:58:07;31.03;;;17.23;;
2728;SDS011;1372;47.956;7.830;2022-12-18T10:00:53;27.70;;;15.70;;
2728;SDS011;1372;47.956;7.830;2022-12-18T10:03:22;29.97;;;16.50;;
2728;SDS011;1372;47.956;7.830;2022-12-18T10:05:54;23.97;;;15.90;;
2728;SDS011;1372;47.956;7.830;2022-12-18T10:08:33;26.40;;;14.57;;
2728;SDS011;1372;47.956;7.830;2022-12-18T10:11:16;24.47;;;13.70;;
2728;SDS011;1372;47.956;7.830;2022-12-18T10:14:00;22.50;;;15.10;;
2728;SDS011;1372;47.956;7.830;2022-12-18T10:16:41;23.87;;;14.87;;
2728;SDS011;1372;47.956;7.830;2022-12-18T10:19:26;27.37;;;15.67;;
2728;SDS011;1372;47.956;7.830;2022-12-18T10:22:11;26.00;;;16.40;;
2728;SDS011;1372;47.956;7.830;2022-12-18T10:24:54;24.70;;;16.47;;
2728;SDS011;1372;47.956;7.830;2022-12-18T10:27:30;28.17;;;15.67;;
2728;SDS011;1372;47.956;7.830;2022-12-18T10:29:59;28.27;;;15.30;;
2728;SDS011;1372;47.956;7.830;2022-12-18T10:32:41;26.83;;;15.43;;
2728;SDS011;1372;47.956;7.830;2022-12-18T10:35:11;23.63;;;16.00;;
2728;SDS011;1372;47.956;7.830;2022-12-18T10:38:00;27.10;;;15.40;;
2728;SDS011;1372;47.956;7.830;2022-12-18T10:40:47;22.30;;;13.97;;
2728;SDS011;1372;47.956;7.830;2022-12-18T10:43:22;19.93;;;14.17;;
2728;SDS011;1372;47.956;7.830;2022-12-18T10:46:00;22.40;;;14.73;;
2728;SDS011;1372;47.956;7.830;2022-12-18T10:51:32;23.03;;;14.37;;
2728;SDS011;1372;47.956;7.830;2022-12-18T10:54:04;18.13;;;12.57;;
2728;SDS011;1372;47.956;7.830;2022-12-18T10:56:40;20.40;;;13.33;;
2728;SDS011;1372;47.956;7.830;2022-12-18T10:59:10;23.60;;;13.40;;
2728;SDS011;1372;47.956;7.830;2022-12-18T11:01:51;25.80;;;14.83;;
2728;SDS011;1372;47.956;7.830;2022-12-18T11:04:24;20.83;;;13.80;;
2728;SDS011;1372;47.956;7.830;2022-12-18T11:06:56;23.13;;;14.47;;
2728;SDS011;1372;47.956;7.830;2022-12-18T11:09:28;23.90;;;15.20;;
2728;SDS011;1372;47.956;7.830;2022-12-18T11:12:00;26.00;;;14.97;;
2728;SDS011;1372;47.956;7.830;2022-12-18T11:14:33;25.00;;;16.70;;
2728;SDS011;1372;47.956;7.830;2022-12-18T11:17:17;26.30;;;16.77;;
2728;SDS011;1372;47.956;7.830;2022-12-18T11:19:55;27.73;;;17.57;;
2728;SDS011;1372;47.956;7.830;2022-12-18T11:22:28;26.13;;;15.83;;
2728;SDS011;1372;47.956;7.830;2022-12-18T11:24:59;26.67;;;16.07;;
2728;SDS011;1372;47.956;7.830;2022-12-18T11:27:52;26.23;;;16.07;;
2728;SDS011;1372;47.956;7.830;2022-12-18T11:30:25;27.73;;;16.43;;
2728;SDS011;1372;47.956;7.830;2022-12-18T11:32:58;23.73;;;15.00;;
2728;SDS011;1372;47.956;7.830;2022-12-18T11:35:37;19.73;;;13.97;;
2728;SDS011;1372;47.956;7.830;2022-12-18T11:38:20;25.63;;;13.20;;
2728;SDS011;1372;47.956;7.830;2022-12-18T11:40:55;23.87;;;14.03;;
2728;SDS011;1372;47.956;7.830;2022-12-18T11:43:28;25.33;;;18.03;;
2728;SDS011;1372;47.956;7.830;2022-12-18T11:46:02;27.90;;;16.83;;
2728;SDS011;1372;47.956;7.830;2022-12-18T11:48:41;28.07;;;17.20;;
2728;SDS011;1372;47.956;7.830;2022-12-18T11:51:18;30.87;;;18.73;;
2728;SDS011;1372;47.956;7.830;2022-12-18T11:53:57;28.50;;;15.70;;
2728;SDS011;1372;47.956;7.830;2022-12-18T11:56:27;28.03;;;17.20;;
2728;SDS011;1372;47.956;7.830;2022-12-18T11:59:04;27.40;;;16.97;;
2728;SDS011;1372;47.956;7.830;2022-12-18T12:01:43;28.40;;;18.40;;
2728;SDS011;1372;47.956;7.830;2022-12-18T12:04:30;29.93;;;18.17;;
2728;SDS011;1372;47.956;7.830;2022-12-18T12:07:34;29.03;;;16.77;;
2728;SDS011;1372;47.956;7.830;2022-12-18T12:10:16;29.70;;;17.37;;
2728;SDS011;1372;47.956;7.830;2022-12-18T12:13:03;30.00;;;15.80;;
2728;SDS011;1372;47.956;7.830;2022-12-18T12:15:52;27.53;;;18.17;;
2728;SDS011;1372;47.956;7.830;2022-12-18T12:18:37;29.37;;;18.10;;
2728;SDS011;1372;47.956;7.830;2022-12-18T12:21:20;33.00;;;17.90;;
2728;SDS011;1372;47.956;7.830;2022-12-18T12:24:00;27.93;;;17.60;;
2728;SDS011;1372;47.956;7.830;2022-12-18T12:26:48;33.27;;;18.57;;
2728;SDS011;1372;47.956;7.830;2022-12-18T12:29:29;29.53;;;16.93;;
2728;SDS011;1372;47.956;7.830;2022-12-18T12:32:20;27.77;;;17.27;;
2728;SDS011;1372;47.956;7.830;2022-12-18T12:35:06;29.60;;;17.77;;
2728;SDS011;1372;47.956;7.830;2022-12-18T12:37:48;29.50;;;17.50;;
2728;SDS011;1372;47.956;7.830;2022-12-18T12:40:31;26.93;;;16.67;;
2728;SDS011;1372;47.956;7.830;2022-12-18T12:43:24;27.17;;;18.00;;
2728;SDS011;1372;47.956;7.830;2022-12-18T12:45:59;30.33;;;18.63;;
2728;SDS011;1372;47.956;7.830;2022-12-18T12:48:35;32.13;;;18.77;;
2728;SDS011;1372;47.956;7.830;2022-12-18T12:51:14;31.20;;;18.80;;
2728;SDS011;1372;47.956;7.830;2022-12-18T12:53:47;27.03;;;17.30;;
2728;SDS011;1372;47.956;7.830;2022-12-18T12:56:20;33.90;;;19.63;;
2728;SDS011;1372;47.956;7.830;2022-12-18T12:59:02;32.67;;;19.97;;
2728;SDS011;1372;47.956;7.830;2022-12-18T13:01:41;30.60;;;18.17;;
2728;SDS011;1372;47.956;7.830;2022-12-18T13:04:21;35.57;;;20.30;;
2728;SDS011;1372;47.956;7.830;2022-12-18T13:07:03;35.73;;;21.13;;
2728;SDS011;1372;47.956;7.830;2022-12-18T13:12:56;33.97;;;17.90;;
2728;SDS011;1372;47.956;7.830;2022-12-18T13:15:28;34.80;;;19.37;;
2728;SDS011;1372;47.956;7.830;2022-12-18T13:18:15;34.37;;;20.07;;
2728;SDS011;1372;47.956;7.830;2022-12-18T13:20:47;31.33;;;17.40;;
2728;SDS011;1372;47.956;7.830;2022-12-18T13:23:42;35.80;;;23.40;;
2728;SDS011;1372;47.956;7.830;2022-12-18T13:26:28;34.30;;;20.70;;
2728;SDS011;1372;47.956;7.830;2022-12-18T13:29:02;33.00;;;18.73;;
2728;SDS011;1372;47.956;7.830;2022-12-18T13:34:29;35.53;;;20.30;;
2728;SDS011;1372;47.956;7.830;2022-12-18T13:43:37;36.33;;;24.70;;
2728;SDS011;1372;47.956;7.830;2022-12-18T13:46:24;33.23;;;20.23;;
2728;SDS011;1372;47.956;7.830;2022-12-18T13:49:00;40.13;;;20.00;;
2728;SDS011;1372;47.956;7.830;2022-12-18T13:51:32;30.70;;;20.83;;
2728;SDS011;1372;47.956;7.830;2022-12-18T13:54:02;36.80;;;21.03;;
2728;SDS011;1372;47.956;7.830;2022-12-18T13:56:42;33.57;;;19.37;;
2728;SDS011;1372;47.956;7.830;2022-12-18T13:59:14;37.80;;;20.73;;
2728;SDS011;1372;47.956;7.830;2022-12-18T14:01:53;32.83;;;21.73;;
2728;SDS011;1372;47.956;7.830;2022-12-18T14:04:26;34.00;;;20.20;;
2728;SDS011;1372;47.956;7.830;2022-12-18T14:11:04;31.33;;;18.20;;
2728;SDS011;1372;47.956;7.830;2022-12-18T14:13:47;36.07;;;19.33;;
2728;SDS011;1372;47.956;7.830;2022-12-18T14:16:20;33.43;;;20.73;;
2728;SDS011;1372;47.956;7.830;2022-12-18T14:19:12;35.77;;;20.20;;
2728;SDS011;1372;47.956;7.830;2022-12-18T14:22:01;38.07;;;21.80;;
2728;SDS011;1372;47.956;7.830;2022-12-18T14:24:33;34.23;;;21.60;;
2728;SDS011;1372;47.956;7.830;2022-12-18T14:27:12;26.87;;;18.47;;
2728;SDS011;1372;47.956;7.830;2022-12-18T14:29:49;39.87;;;23.50;;
2728;SDS011;1372;47.956;7.830;2022-12-18T14:32:19;40.73;;;24.97;;
2728;SDS011;1372;47.956;7.830;2022-12-18T14:34:50;40.47;;;23.20;;
2728;SDS011;1372;47.956;7.830;2022-12-18T14:37:24;39.00;;;23.13;;
2728;SDS011;1372;47.956;7.830;2022-12-18T14:39:56;37.97;;;24.17;;
2728;SDS011;1372;47.956;7.830;2022-12-18T14:42:28;32.30;;;21.13;;
2728;SDS011;1372;47.956;7.830;2022-12-18T14:48:09;34.93;;;20.17;;
2728;SDS011;1372;47.956;7.830;2022-12-18T14:51:00;28.90;;;17.63;;
2728;SDS011;1372;47.956;7.830;2022-12-18T14:53:32;37.70;;;18.97;;
2728;SDS011;1372;47.956;7.830;2022-12-18T14:56:16;33.50;;;19.37;;
2728;SDS011;1372;47.956;7.830;2022-12-18T14:58:49;33.63;;;20.90;;
2728;SDS011;1372;47.956;7.830;2022-12-18T15:01:26;32.37;;;19.93;;
2728;SDS011;1372;47.956;7.830;2022-12-18T15:03:59;33.17;;;19.90;;
2728;SDS011;1372;47.956;7.830;2022-12-18T15:06:32;38.43;;;20.43;;
2728;SDS011;1372;47.956;7.830;2022-12-18T15:09:04;35.67;;;20.47;;
2728;SDS011;1372;47.956;7.830;2022-12-18T15:11:54;36.23;;;20.67;;
2728;SDS011;1372;47.956;7.830;2022-12-18T15:14:30;35.87;;;19.07;;
2728;SDS011;1372;47.956;7.830;2022-12-18T15:17:05;39.60;;;22.77;;
2728;SDS011;1372;47.956;7.830;2022-12-18T15:19:49;45.03;;;22.90;;
2728;SDS011;1372;47.956;7.830;2022-12-18T15:22:24;44.17;;;23.50;;
2728;SDS011;1372;47.956;7.830;2022-12-18T15:24:55;35.70;;;21.00;;
2728;SDS011;1372;47.956;7.830;2022-12-18T15:27:27;34.33;;;21.23;;
2728;SDS011;1372;47.956;7.830;2022-12-18T15:30:20;37.30;;;23.30;;
2728;SDS011;1372;47.956;7.830;2022-12-18T15:32:51;39.67;;;24.20;;
2728;SDS011;1372;47.956;7.830;2022-12-18T15:35:57;47.43;;;27.57;;
2728;SDS011;1372;47.956;7.830;2022-12-18T15:38:29;37.87;;;24.40;;
2728;SDS011;1372;47.956;7.830;2022-12-18T15:40:58;34.33;;;21.17;;
2728;SDS011;1372;47.956;7.830;2022-12-18T15:43:26;33.90;;;21.00;;
2728;SDS011;1372;47.956;7.830;2022-12-18T15:46:01;29.03;;;19.10;;
2728;SDS011;1372;47.956;7.830;2022-12-18T15:48:36;36.67;;;20.37;;
2728;SDS011;1372;47.956;7.830;2022-12-18T15:51:10;36.70;;;23.20;;
2728;SDS011;1372;47.956;7.830;2022-12-18T15:53:44;39.20;;;22.50;;